Time;durP1;ratioP1;P1;durP2;ratioP2;P2;SDS_P1;SDS_P2;PMS_P1;PMS_P2;Temp;Humidity;BMP_temperature;BMP_pressure;BME280_temperature;BME280_humidity;BME280_pressure;Samples;Min_cycle;Max_cycle;Signal;HPM_P1;HPM_P2
2022/10/03 00:00:17;;;;;;;0.20;0.10;;;;;;;;;;4929162;28;20066;-87
2022/10/03 00:02:49;;;;;;;0.20;0.10;;;;;;;;;;4932375;28;20042;-88
2022/10/03 00:05:55;;;;;;;0.20;0.10;;;;;;;;;;4931185;28;20238;-87
2022/10/03 00:08:21;;;;;;;0.20;0.10;;;;;;;;;;4899735;29;20059;-86
2022/10/03 00:11:02;;;;;;;0.20;0.10;;;;;;;;;;4900597;29;20122;-87
2022/10/03 00:14:01;;;;;;;0.20;0.10;;;;;;;;;;4919181;28;20051;-86
2022/10/03 00:16:38;;;;;;;0.20;0.10;;;;;;;;;;4892277;29;20146;-86
2022/10/03 00:19:23;;;;;;;0.20;0.10;;;;;;;;;;4936402;28;20077;-86
2022/10/03 00:22:17;;;;;;;0.20;0.10;;;;;;;;;;4922546;28;20163;-87
2022/10/03 00:24:46;;;;;;;0.20;0.10;;;;;;;;;;4913870;28;20046;-90
2022/10/03 00:27:27;;;;;;;0.20;0.00;;;;;;;;;;4932906;28;20031;-87
2022/10/03 00:30:01;;;;;;;0.20;0.10;;;;;;;;;;4933442;28;20659;-86
2022/10/03 00:32:42;;;;;;;0.20;0.10;;;;;;;;;;4922855;28;20052;-86
2022/10/03 00:35:08;;;;;;;0.20;0.10;;;;;;;;;;4934111;28;20050;-86
2022/10/03 00:37:34;;;;;;;0.20;0.10;;;;;;;;;;4936540;28;20052;-86
2022/10/03 00:40:19;;;;;;;0.20;0.10;;;;;;;;;;4929946;28;20067;-87
2022/10/03 00:43:04;;;;;;;0.20;0.10;;;;;;;;;;4941190;28;20122;-87
2022/10/03 00:45:42;;;;;;;0.20;0.10;;;;;;;;;;4940601;28;20039;-88
2022/10/03 00:48:14;;;;;;;0.93;0.93;;;;;;;;;;4919205;28;20046;-88
2022/10/03 00:50:52;;;;;;;0.20;0.10;;;;;;;;;;4956449;28;20787;-87
2022/10/03 00:53:31;;;;;;;0.20;0.10;;;;;;;;;;4921958;28;21320;-86
2022/10/03 00:56:06;;;;;;;0.20;0.10;;;;;;;;;;4955554;28;20067;-87
2022/10/03 00:58:41;;;;;;;0.20;0.10;;;;;;;;;;4949134;28;20054;-86
2022/10/03 01:01:26;;;;;;;0.20;0.10;;;;;;;;;;4931404;29;20044;-87
2022/10/03 01:04:04;;;;;;;0.35;0.13;;;;;;;;;;4951161;28;20133;-86
2022/10/03 01:06:47;;;;;;;0.20;0.10;;;;;;;;;;4944834;28;20106;-86
2022/10/03 01:09:13;;;;;;;;;;;;;;;;;;4939302;28;20043;-85
2022/10/03 01:11:45;;;;;;;0.20;0.10;;;;;;;;;;4925911;28;19997;-88
2022/10/03 01:14:11;;;;;;;;;;;;;;;;;;4945560;28;20040;-86
2022/10/03 01:16:56;;;;;;;0.20;0.10;;;;;;;;;;4939859;28;20378;-86
2022/10/03 01:19:29;;;;;;;0.20;0.08;;;;;;;;;;4961374;28;20040;-86
2022/10/03 01:22:14;;;;;;;0.20;0.10;;;;;;;;;;4927337;28;20041;-88
2022/10/03 01:24:40;;;;;;;0.25;0.10;;;;;;;;;;4943400;28;20429;-86
2022/10/03 01:27:07;;;;;;;0.20;0.10;;;;;;;;;;4946764;28;20541;-87
2022/10/03 01:32:40;;;;;;;0.20;0.10;;;;;;;;;;4942104;28;20059;-86
2022/10/03 01:35:21;;;;;;;0.20;0.10;;;;;;;;;;4944324;28;20044;-86
2022/10/03 01:37:52;;;;;;;0.20;0.10;;;;;;;;;;4945571;28;20043;-87
2022/10/03 01:40:25;;;;;;;0.20;0.10;;;;;;;;;;4946627;28;20035;-88
2022/10/03 01:42:57;;;;;;;0.20;0.10;;;;;;;;;;4924457;28;20042;-88
2022/10/03 01:45:29;;;;;;;0.20;0.10;;;;;;;;;;4926637;28;20040;-87
2022/10/03 01:48:01;;;;;;;0.20;0.10;;;;;;;;;;4928062;28;20035;-86
2022/10/03 01:50:35;;;;;;;0.20;0.10;;;;;;;;;;4947995;28;20050;-86
2022/10/03 01:53:14;;;;;;;0.20;0.10;;;;;;;;;;4945239;28;20062;-86
2022/10/03 01:56:02;;;;;;;0.20;0.10;;;;;;;;;;4934777;28;20051;-89
2022/10/03 01:58:44;;;;;;;0.20;0.10;;;;;;;;;;4930404;28;20051;-87
2022/10/03 02:01:19;;;;;;;0.20;0.10;;;;;;;;;;4929584;28;20070;-89
2022/10/03 02:04:08;;;;;;;0.20;0.10;;;;;;;;;;4922455;28;20031;-89
2022/10/03 02:06:42;;;;;;;0.20;0.10;;;;;;;;;;4917087;28;20070;-88
2022/10/03 02:09:27;;;;;;;0.20;0.10;;;;;;;;;;4937389;28;20091;-87
2022/10/03 02:11:57;;;;;;;0.40;0.15;;;;;;;;;;4954101;28;20058;-89
2022/10/03 02:14:42;;;;;;;0.20;0.10;;;;;;;;;;4941734;28;20047;-86
2022/10/03 02:17:20;;;;;;;0.20;0.17;;;;;;;;;;4937128;28;20039;-87
2022/10/03 02:19:49;;;;;;;0.20;0.10;;;;;;;;;;4940069;28;20497;-86
2022/10/03 02:22:27;;;;;;;0.20;0.10;;;;;;;;;;4917484;28;20455;-87
2022/10/03 02:25:08;;;;;;;0.20;0.10;;;;;;;;;;4934540;28;20126;-87
2022/10/03 02:27:34;;;;;;;0.20;0.10;;;;;;;;;;4943706;28;20053;-87
2022/10/03 02:30:01;;;;;;;0.20;0.10;;;;;;;;;;4942448;28;20050;-88
2022/10/03 02:32:46;;;;;;;0.20;0.10;;;;;;;;;;4938900;28;20074;-87
2022/10/03 02:35:24;;;;;;;0.20;0.10;;;;;;;;;;4927317;28;20050;-88
2022/10/03 02:38:09;;;;;;;0.20;0.10;;;;;;;;;;4937292;28;20082;-89
2022/10/03 02:40:55;;;;;;;0.20;0.10;;;;;;;;;;4939462;28;20055;-88
2022/10/03 02:43:42;;;;;;;0.20;0.10;;;;;;;;;;4935971;28;20031;-88
2022/10/03 02:46:26;;;;;;;0.20;0.10;;;;;;;;;;4935997;28;20047;-88
2022/10/03 02:49:23;;;;;;;0.20;0.10;;;;;;;;;;4939225;28;20047;-87
2022/10/03 02:52:01;;;;;;;0.20;0.10;;;;;;;;;;4929884;28;20193;-87
2022/10/03 02:54:30;;;;;;;0.20;0.10;;;;;;;;;;4948649;28;20044;-87
2022/10/03 02:56:56;;;;;;;0.20;0.10;;;;;;;;;;4943837;28;21325;-86
2022/10/03 02:59:41;;;;;;;0.20;0.10;;;;;;;;;;4928882;28;20139;-86
2022/10/03 03:02:26;;;;;;;0.20;0.10;;;;;;;;;;4945655;28;20047;-86
2022/10/03 03:05:11;;;;;;;0.20;0.10;;;;;;;;;;4930550;28;20051;-86
2022/10/03 03:07:37;;;;;;;0.20;0.10;;;;;;;;;;4951034;28;20047;-87
2022/10/03 03:10:03;;;;;;;0.20;0.10;;;;;;;;;;4944270;28;20422;-86
2022/10/03 03:12:49;;;;;;;0.20;0.10;;;;;;;;;;4940805;28;20039;-86
2022/10/03 03:15:15;;;;;;;0.20;0.10;;;;;;;;;;4938735;28;20134;-87
2022/10/03 03:18:05;;;;;;;0.20;0.10;;;;;;;;;;4923487;28;20059;-85
2022/10/03 03:20:40;;;;;;;0.20;0.10;;;;;;;;;;4958283;28;20039;-86
2022/10/03 03:23:29;;;;;;;0.20;0.10;;;;;;;;;;4944443;28;20050;-86
2022/10/03 03:25:58;;;;;;;0.20;0.10;;;;;;;;;;4943643;28;20052;-87
2022/10/03 03:28:39;;;;;;;0.20;0.10;;;;;;;;;;4944713;28;20050;-86
2022/10/03 03:31:13;;;;;;;0.20;0.10;;;;;;;;;;4943778;28;20142;-86
2022/10/03 03:33:55;;;;;;;0.20;0.10;;;;;;;;;;4936314;28;20081;-86
2022/10/03 03:36:24;;;;;;;0.20;0.10;;;;;;;;;;4920903;28;20783;-89
2022/10/03 03:39:09;;;;;;;0.20;0.10;;;;;;;;;;4937172;28;20051;-88
2022/10/03 03:41:38;;;;;;;0.20;0.10;;;;;;;;;;4935339;28;20102;-86
2022/10/03 03:44:13;;;;;;;0.20;0.10;;;;;;;;;;4923752;28;20043;-87
2022/10/03 03:46:42;;;;;;;0.20;0.10;;;;;;;;;;4923192;28;20035;-85
2022/10/03 03:49:28;;;;;;;0.20;0.10;;;;;;;;;;4943884;28;20050;-86
2022/10/03 03:52:00;;;;;;;0.20;0.10;;;;;;;;;;4942591;28;20411;-86
2022/10/03 03:54:39;;;;;;;0.20;0.10;;;;;;;;;;4927043;28;20043;-86
2022/10/03 03:57:05;;;;;;;0.20;0.10;;;;;;;;;;4941364;28;20102;-86
2022/10/03 03:59:34;;;;;;;0.20;0.10;;;;;;;;;;4944475;28;20107;-85
2022/10/03 04:02:05;;;;;;;0.20;0.10;;;;;;;;;;4941835;28;20051;-86
2022/10/03 04:04:34;;;;;;;0.20;0.10;;;;;;;;;;4946949;28;20167;-87
2022/10/03 04:07:03;;;;;;;0.20;0.10;;;;;;;;;;4925015;28;20118;-87
2022/10/03 04:09:42;;;;;;;0.20;0.10;;;;;;;;;;4935552;28;20039;-87
2022/10/03 04:12:28;;;;;;;0.20;0.10;;;;;;;;;;4937046;28;20110;-86
2022/10/03 04:14:54;;;;;;;0.20;0.10;;;;;;;;;;4938832;28;20146;-84
2022/10/03 04:20:25;;;;;;;0.20;0.10;;;;;;;;;;4937661;28;20066;-85
2022/10/03 04:22:51;;;;;;;0.20;0.10;;;;;;;;;;4923066;28;20077;-85
2022/10/03 04:25:19;;;;;;;0.20;0.10;;;;;;;;;;4938500;28;20426;-85
2022/10/03 04:27:57;;;;;;;0.20;0.10;;;;;;;;;;4924417;28;20259;-86
2022/10/03 04:30:29;;;;;;;0.20;0.10;;;;;;;;;;4922450;28;20228;-87
2022/10/03 04:32:58;;;;;;;0.20;0.10;;;;;;;;;;4897872;29;20043;-86
2022/10/03 04:35:43;;;;;;;0.20;0.10;;;;;;;;;;4914601;29;20577;-86
2022/10/03 04:38:20;;;;;;;0.20;0.10;;;;;;;;;;4914512;29;20044;-87
2022/10/03 04:41:13;;;;;;;0.20;0.10;;;;;;;;;;4912915;29;20078;-84
2022/10/03 04:43:45;;;;;;;0.20;0.10;;;;;;;;;;4912614;29;20473;-84
2022/10/03 04:46:14;;;;;;;0.20;0.10;;;;;;;;;;4916585;29;20090;-86
2022/10/03 04:48:51;;;;;;;0.20;0.10;;;;;;;;;;4942893;28;20106;-85
2022/10/03 04:51:24;;;;;;;0.20;0.10;;;;;;;;;;4910209;29;20070;-86
2022/10/03 04:54:03;;;;;;;0.20;0.10;;;;;;;;;;4895784;29;20079;-86
2022/10/03 04:56:44;;;;;;;0.20;0.10;;;;;;;;;;4908365;29;20495;-86
2022/10/03 04:59:28;;;;;;;0.20;0.10;;;;;;;;;;4905120;29;20574;-85
2022/10/03 05:02:14;;;;;;;0.20;0.10;;;;;;;;;;4913242;29;20056;-84
2022/10/03 05:04:40;;;;;;;0.20;0.10;;;;;;;;;;4915702;29;20043;-85
2022/10/03 05:07:28;;;;;;;0.20;0.10;;;;;;;;;;4919912;29;20050;-85
2022/10/03 05:10:14;;;;;;;0.20;0.10;;;;;;;;;;4953111;28;20063;-86
2022/10/03 05:12:43;;;;;;;0.20;0.10;;;;;;;;;;4902787;29;20047;-85
2022/10/03 05:15:32;;;;;;;0.20;0.10;;;;;;;;;;4925110;29;20035;-89
2022/10/03 05:18:25;;;;;;;0.20;0.10;;;;;;;;;;4927006;29;20059;-85
2022/10/03 05:21:21;;;;;;;0.20;0.10;;;;;;;;;;4892414;29;20056;-91
2022/10/03 05:23:47;;;;;;;0.20;0.10;;;;;;;;;;4885148;29;20040;-86
2022/10/03 05:26:16;;;;;;;0.20;0.10;;;;;;;;;;4915211;29;20097;-85
2022/10/03 05:28:57;;;;;;;0.20;0.10;;;;;;;;;;4940267;28;20043;-88
2022/10/03 05:31:39;;;;;;;0.20;0.10;;;;;;;;;;4907756;29;20549;-88
2022/10/03 05:34:21;;;;;;;0.20;0.10;;;;;;;;;;4956421;28;20083;-87
2022/10/03 05:37:06;;;;;;;0.20;0.10;;;;;;;;;;4918336;29;20047;-86
2022/10/03 05:39:50;;;;;;;0.20;0.10;;;;;;;;;;4940203;28;20048;-86
2022/10/03 05:42:20;;;;;;;0.20;0.10;;;;;;;;;;4920697;29;20529;-86
2022/10/03 05:44:54;;;;;;;0.20;0.10;;;;;;;;;;4911577;29;20069;-85
2022/10/03 05:47:44;;;;;;;0.20;0.10;;;;;;;;;;4902631;29;20046;-85
2022/10/03 05:50:17;;;;;;;0.20;0.10;;;;;;;;;;4927015;29;20062;-86
2022/10/03 05:52:52;;;;;;;0.20;0.10;;;;;;;;;;4921044;29;20136;-86
2022/10/03 05:55:21;;;;;;;0.20;0.08;;;;;;;;;;4920745;29;20039;-85
2022/10/03 05:57:53;;;;;;;0.20;0.10;;;;;;;;;;4913780;29;20126;-85
2022/10/03 06:00:26;;;;;;;0.20;0.10;;;;;;;;;;4928167;28;20043;-85
2022/10/03 06:03:11;;;;;;;0.20;0.10;;;;;;;;;;4920811;29;21418;-85
2022/10/03 06:05:45;;;;;;;0.20;0.10;;;;;;;;;;4915918;29;20467;-85
2022/10/03 06:08:30;;;;;;;0.20;0.10;;;;;;;;;;4911615;29;20452;-85
2022/10/03 06:11:02;;;;;;;0.20;0.10;;;;;;;;;;4911450;29;20143;-85
2022/10/03 06:13:31;;;;;;;0.20;0.10;;;;;;;;;;4913659;29;20049;-83
2022/10/03 06:16:00;;;;;;;0.20;0.10;;;;;;;;;;4946116;28;20043;-85
2022/10/03 06:18:26;;;;;;;0.20;0.10;;;;;;;;;;4919699;29;20040;-85
2022/10/03 06:21:04;;;;;;;0.20;0.10;;;;;;;;;;4922861;29;20395;-86
2022/10/03 06:23:36;;;;;;;0.20;0.10;;;;;;;;;;4921827;29;20563;-86
2022/10/03 06:26:08;;;;;;;0.20;0.10;;;;;;;;;;4932792;28;20036;-86
2022/10/03 06:28:50;;;;;;;0.20;0.10;;;;;;;;;;4918335;29;21316;-85
2022/10/03 06:31:22;;;;;;;0.20;0.10;;;;;;;;;;4914784;29;20051;-85
2022/10/03 06:33:58;;;;;;;0.20;0.10;;;;;;;;;;4919390;29;20630;-86
2022/10/03 06:36:48;;;;;;;0.20;0.10;;;;;;;;;;4913467;29;20052;-84
2022/10/03 06:39:14;;;;;;;0.20;0.10;;;;;;;;;;4945080;28;20136;-84
2022/10/03 06:42:09;;;;;;;0.20;0.10;;;;;;;;;;4918181;29;20063;-86
2022/10/03 06:44:55;;;;;;;0.20;0.10;;;;;;;;;;4922429;28;20135;-86
2022/10/03 06:47:40;;;;;;;0.20;0.10;;;;;;;;;;4916722;29;20047;-84
2022/10/03 06:50:25;;;;;;;0.20;0.10;;;;;;;;;;4922590;28;20087;-86
2022/10/03 06:53:00;;;;;;;0.20;0.10;;;;;;;;;;4919607;29;20485;-85
2022/10/03 06:55:46;;;;;;;0.20;0.10;;;;;;;;;;4917665;29;20095;-86
2022/10/03 06:58:12;;;;;;;0.20;0.10;;;;;;;;;;4914356;29;20107;-86
2022/10/03 07:00:53;;;;;;;0.20;0.10;;;;;;;;;;4951499;28;20047;-86
2022/10/03 07:03:35;;;;;;;0.20;0.10;;;;;;;;;;4931132;28;20068;-85
2022/10/03 07:06:20;;;;;;;0.20;0.10;;;;;;;;;;4897696;29;20047;-85
2022/10/03 07:09:05;;;;;;;0.20;0.10;;;;;;;;;;4901952;29;20043;-86
2022/10/03 07:11:33;;;;;;;0.20;0.10;;;;;;;;;;4909497;29;20568;-86
2022/10/03 07:13:59;;;;;;;0.20;0.10;;;;;;;;;;4930767;28;20091;-85
2022/10/03 07:16:28;;;;;;;0.20;0.10;;;;;;;;;;4914614;29;20126;-86
2022/10/03 07:18:54;;;;;;;0.20;0.10;;;;;;;;;;4919035;29;20134;-84
2022/10/03 07:21:39;;;;;;;0.60;0.13;;;;;;;;;;4916903;29;20458;-85
2022/10/03 07:24:16;;;;;;;0.20;0.10;;;;;;;;;;4914320;29;20039;-84
2022/10/03 07:27:08;;;;;;;0.20;0.10;;;;;;;;;;4901386;29;20040;-85
2022/10/03 07:29:41;;;;;;;0.20;0.10;;;;;;;;;;4914344;29;20525;-85
2022/10/03 07:32:29;;;;;;;0.20;0.10;;;;;;;;;;4930653;28;20039;-85
2022/10/03 07:35:04;;;;;;;0.20;0.10;;;;;;;;;;4913921;29;20158;-86
2022/10/03 07:40:58;;;;;;;0.20;0.10;;;;;;;;;;4923697;29;20067;-88
2022/10/03 07:43:24;;;;;;;0.20;0.10;;;;;;;;;;4924303;29;20130;-86
2022/10/03 07:46:16;;;;;;;0.20;0.10;;;;;;;;;;4917272;29;20075;-85
2022/10/03 07:48:54;;;;;;;0.20;0.10;;;;;;;;;;4914340;29;20043;-85
2022/10/03 07:51:23;;;;;;;0.20;0.10;;;;;;;;;;4920953;29;20047;-86
2022/10/03 07:54:08;;;;;;;0.20;0.10;;;;;;;;;;4902438;29;20058;-85
2022/10/03 07:56:52;;;;;;;0.20;0.10;;;;;;;;;;4949037;28;20039;-85
2022/10/03 07:59:18;;;;;;;0.20;0.10;;;;;;;;;;4920702;29;20040;-86
2022/10/03 08:02:07;;;;;;;0.20;0.10;;;;;;;;;;4916964;28;20046;-87
2022/10/03 08:04:33;;;;;;;0.20;0.10;;;;;;;;;;4914511;29;20044;-86
2022/10/03 08:07:18;;;;;;;0.20;0.10;;;;;;;;;;4912702;29;20036;-87
2022/10/03 08:10:03;;;;;;;0.20;0.10;;;;;;;;;;4933209;28;20135;-85
2022/10/03 08:12:48;;;;;;;0.20;0.10;;;;;;;;;;4916585;29;20570;-87
2022/10/03 08:15:20;;;;;;;0.20;0.10;;;;;;;;;;4921332;29;20043;-86
2022/10/03 08:17:47;;;;;;;0.20;0.10;;;;;;;;;;4905751;29;20138;-86
2022/10/03 08:20:22;;;;;;;0.20;0.10;;;;;;;;;;4904595;29;20047;-86
2022/10/03 08:23:04;;;;;;;0.20;0.00;;;;;;;;;;4914240;29;20555;-88
2022/10/03 08:25:49;;;;;;;0.20;0.10;;;;;;;;;;4939600;28;20059;-85
2022/10/03 08:28:28;;;;;;;0.20;0.10;;;;;;;;;;4907435;29;20039;-85
2022/10/03 08:31:12;;;;;;;0.20;0.10;;;;;;;;;;4928389;29;20091;-86
2022/10/03 08:33:47;;;;;;;0.20;0.10;;;;;;;;;;4923702;29;20103;-86
2022/10/03 08:36:30;;;;;;;0.20;0.10;;;;;;;;;;4918040;29;20039;-88
2022/10/03 08:38:59;;;;;;;0.20;0.10;;;;;;;;;;4918258;29;20107;-88
2022/10/03 08:41:44;;;;;;;0.20;0.10;;;;;;;;;;4906232;29;20170;-85
2022/10/03 08:44:31;;;;;;;0.20;0.10;;;;;;;;;;4922609;29;20047;-87
2022/10/03 08:47:01;;;;;;;0.20;0.10;;;;;;;;;;4937399;28;20047;-87
2022/10/03 08:49:50;;;;;;;0.20;0.10;;;;;;;;;;4911207;29;20047;-87
2022/10/03 08:52:41;;;;;;;0.20;0.10;;;;;;;;;;4926923;29;21264;-87
2022/10/03 08:58:19;;;;;;;0.20;0.10;;;;;;;;;;4992614;23;20081;-87
2022/10/03 09:01:04;;;;;;;0.20;0.10;;;;;;;;;;4958426;28;20043;-88
2022/10/03 09:03:49;;;;;;;0.20;0.10;;;;;;;;;;4952544;28;20050;-88
2022/10/03 09:06:40;;;;;;;0.20;0.10;;;;;;;;;;4956085;28;20039;-87
2022/10/03 09:09:12;;;;;;;0.20;0.10;;;;;;;;;;4953403;28;20039;-87
2022/10/03 09:11:57;;;;;;;0.20;0.10;;;;;;;;;;4941324;28;20050;-88
2022/10/03 09:14:42;;;;;;;0.20;0.10;;;;;;;;;;4958958;28;20051;-92
2022/10/03 09:17:29;;;;;;;0.20;0.00;;;;;;;;;;4928310;28;20035;-91
2022/10/03 09:23:38;;;;;;;0.20;0.10;;;;;;;;;;4950440;28;20078;-89
2022/10/03 09:26:26;;;;;;;0.20;0.10;;;;;;;;;;4961263;28;20122;-88
2022/10/03 09:29:26;;;;;;;0.20;0.10;;;;;;;;;;4931629;28;20039;-89
2022/10/03 09:32:17;;;;;;;0.20;0.10;;;;;;;;;;4975032;28;20078;-87
2022/10/03 09:35:16;;;;;;;0.20;0.10;;;;;;;;;;4947917;28;20062;-88
2022/10/03 09:38:06;;;;;;;0.20;0.10;;;;;;;;;;4958369;28;20051;-87
2022/10/03 09:40:57;;;;;;;0.20;0.10;;;;;;;;;;4942865;28;20082;-87
2022/10/03 09:43:34;;;;;;;0.20;0.10;;;;;;;;;;4961209;28;20043;-87
2022/10/03 09:46:15;;;;;;;0.20;0.10;;;;;;;;;;4991202;23;20110;-88
2022/10/03 09:49:16;;;;;;;0.20;0.10;;;;;;;;;;4965942;28;20034;-88
2022/10/03 09:52:14;;;;;;;0.20;0.10;;;;;;;;;;4946140;28;20105;-92
2022/10/03 09:54:43;;;;;;;0.20;0.10;;;;;;;;;;4947741;28;20047;-87
2022/10/03 10:00:35;;;;;;;0.20;0.10;;;;;;;;;;4942561;28;20042;-91
2022/10/03 10:03:38;;;;;;;0.20;0.10;;;;;;;;;;4957705;28;20466;-88
2022/10/03 10:06:12;;;;;;;0.20;0.10;;;;;;;;;;4942842;28;20059;-89
2022/10/03 10:08:57;;;;;;;0.20;0.10;;;;;;;;;;4974496;28;20039;-88
2022/10/03 10:11:34;;;;;;;0.20;0.10;;;;;;;;;;4966965;28;20043;-89
2022/10/03 10:14:06;;;;;;;0.20;0.10;;;;;;;;;;4952505;28;20039;-89
2022/10/03 10:16:52;;;;;;;0.20;0.10;;;;;;;;;;4953540;28;20059;-86
2022/10/03 10:19:30;;;;;;;0.20;0.10;;;;;;;;;;4937884;28;20061;-90
2022/10/03 10:22:04;;;;;;;0.20;0.10;;;;;;;;;;4926573;28;20147;-88
2022/10/03 10:24:49;;;;;;;0.20;0.10;;;;;;;;;;4927666;28;20419;-89
2022/10/03 10:27:41;;;;;;;0.20;0.10;;;;;;;;;;4952194;28;20506;-88
2022/10/03 10:33:32;;;;;;;0.20;0.10;;;;;;;;;;4967156;28;20051;-88
2022/10/03 10:36:17;;;;;;;0.20;0.10;;;;;;;;;;4977905;28;20121;-88
2022/10/03 10:45:38;;;;;;;0.20;0.10;;;;;;;;;;4920955;28;20047;-88
2022/10/03 10:52:03;;;;;;;0.20;0.10;;;;;;;;;;4944681;28;20085;-89
2022/10/03 10:54:39;;;;;;;0.20;0.10;;;;;;;;;;4943980;28;20129;-87
2022/10/03 10:57:26;;;;;;;0.20;0.10;;;;;;;;;;4939412;28;20058;-88
2022/10/03 11:00:11;;;;;;;0.20;0.10;;;;;;;;;;4979989;23;20049;-87
2022/10/03 11:03:18;;;;;;;0.20;0.10;;;;;;;;;;4957779;28;20043;-90
2022/10/03 11:05:45;;;;;;;0.20;0.10;;;;;;;;;;4954954;28;20043;-88
2022/10/03 11:08:30;;;;;;;0.20;0.10;;;;;;;;;;4958007;28;20046;-86
2022/10/03 11:11:15;;;;;;;0.20;0.10;;;;;;;;;;4972811;28;20047;-85
2022/10/03 11:14:05;;;;;;;0.20;0.10;;;;;;;;;;4941011;28;20047;-88
2022/10/03 11:16:34;;;;;;;0.20;0.10;;;;;;;;;;4944959;28;20059;-84
2022/10/03 11:19:25;;;;;;;0.20;0.10;;;;;;;;;;4942658;28;20082;-86
2022/10/03 11:25:35;;;;;;;0.20;0.10;;;;;;;;;;4943289;28;20034;-85
2022/10/03 11:32:07;;;;;;;0.20;0.10;;;;;;;;;;4923793;29;20035;-88
2022/10/03 11:34:44;;;;;;;0.20;0.10;;;;;;;;;;4899053;29;20055;-86
2022/10/03 11:37:13;;;;;;;0.20;0.10;;;;;;;;;;4903240;29;20538;-87
2022/10/03 11:43:13;;;;;;;0.20;0.10;;;;;;;;;;4926956;28;20098;-86
2022/10/03 11:49:48;;;;;;;0.20;0.10;;;;;;;;;;4854343;29;21394;-85
2022/10/03 11:59:43;;;;;;;0.20;0.10;;;;;;;;;;4867799;29;20103;-89
2022/10/03 12:02:38;;;;;;;0.20;0.10;;;;;;;;;;4883882;29;20041;-88
2022/10/03 12:09:14;;;;;;;0.20;0.10;;;;;;;;;;4827681;29;20056;-88
2022/10/03 12:12:37;;;;;;;;;;;;;;;;;;;;;
2022/10/03 12:15:03;;;;;;;0.20;0.10;;;;;;;;;;4798270;29;20046;-84
2022/10/03 12:21:21;;;;;;;0.20;0.10;;;;;;;;;;4830341;29;20540;-88
2022/10/03 12:24:01;;;;;;;0.20;0.10;;;;;;;;;;4867543;29;20304;-85
2022/10/03 12:33:12;;;;;;;0.20;0.10;;;;;;;;;;4884947;29;20145;-85
2022/10/03 12:36:05;;;;;;;0.20;0.03;;;;;;;;;;4849985;29;20424;-87
2022/10/03 12:39:05;;;;;;;;;;;;;;;;;;;;;
2022/10/03 12:42:17;;;;;;;0.20;0.10;;;;;;;;;;4823642;29;20127;-85
2022/10/03 12:45:30;;;;;;;;;;;;;;;;;;;;;
2022/10/03 12:51:50;;;;;;;0.20;0.10;;;;;;;;;;4843658;29;20053;-86
2022/10/03 12:54:37;;;;;;;0.20;0.10;;;;;;;;;;4854473;29;20550;-87
2022/10/03 12:57:32;;;;;;;;;;;;;;;;;;;;;
2022/10/03 13:03:37;;;;;;;0.20;0.10;;;;;;;;;;4940143;28;20574;-86
2022/10/03 13:10:14;;;;;;;0.20;0.10;;;;;;;;;;4937514;28;20043;-88
2022/10/03 13:55:49;;;;;;;0.20;0.10;;;;;;;;;;4928591;28;20051;-86
2022/10/03 14:45:31;;;;;;;0.20;0.10;;;;;;;;;;4941857;28;20054;-86
2022/10/03 14:48:07;;;;;;;0.20;0.10;;;;;;;;;;4959181;28;20058;-87
2022/10/03 14:53:42;;;;;;;0.20;0.10;;;;;;;;;;4919953;29;20090;-86
2022/10/03 17:07:22;;;;;;;0.20;0.10;;;;;;;;;;4933356;28;20055;-88
2022/10/03 17:17:01;;;;;;;;;;;;;;;;;;;;;
2022/10/03 17:22:07;;;;;;;0.20;0.10;;;;;;;;;;4967465;23;20498;-85
2022/10/03 17:25:24;;;;;;;0.20;0.10;;;;;;;;;;4942971;28;20043;-87
2022/10/03 17:27:55;;;;;;;0.20;0.10;;;;;;;;;;4941791;28;20564;-87
2022/10/03 17:31:24;;;;;;;0.20;0.10;;;;;;;;;;4941169;28;20115;-89
2022/10/03 17:34:26;;;;;;;0.20;0.10;;;;;;;;;;4926036;29;20083;-88
2022/10/03 17:40:39;;;;;;;0.20;0.10;;;;;;;;;;4888825;29;20059;-88
2022/10/03 17:43:25;;;;;;;0.20;0.10;;;;;;;;;;4880678;29;20063;-88
2022/10/03 17:46:02;;;;;;;0.20;0.10;;;;;;;;;;4937920;28;20053;-88
2022/10/03 17:49:01;;;;;;;0.20;0.10;;;;;;;;;;4939540;28;20051;-87
2022/10/03 17:51:40;;;;;;;0.20;0.10;;;;;;;;;;4880343;29;20061;-88
2022/10/03 17:54:16;;;;;;;0.20;0.10;;;;;;;;;;4938920;28;20043;-88
2022/10/03 17:57:06;;;;;;;0.20;0.10;;;;;;;;;;4923766;29;20039;-88
2022/10/03 17:59:54;;;;;;;0.20;0.10;;;;;;;;;;4940276;28;20054;-88
2022/10/03 18:03:05;;;;;;;0.20;0.10;;;;;;;;;;4939526;28;20050;-88
2022/10/03 18:06:37;;;;;;;;;;;;;;;;;;;;;
2022/10/03 18:16:26;;;;;;;0.20;0.10;;;;;;;;;;4807352;29;20048;-88
2022/10/03 18:19:20;;;;;;;;;;;;;;;;;;;;;
2022/10/03 18:28:18;;;;;;;0.20;0.10;;;;;;;;;;4926607;29;20418;-87
2022/10/03 18:31:04;;;;;;;0.20;0.10;;;;;;;;;;4925066;29;20083;-87
2022/10/03 18:33:52;;;;;;;0.20;0.20;;;;;;;;;;4906444;29;20063;-88
2022/10/03 18:36:27;;;;;;;0.20;0.10;;;;;;;;;;4937945;28;20054;-87
2022/10/03 18:41:44;;;;;;;0.20;0.10;;;;;;;;;;4921567;29;19923;-88
2022/10/03 18:44:15;;;;;;;0.20;0.10;;;;;;;;;;4942505;28;20047;-88
2022/10/03 18:53:39;;;;;;;;;;;;;;;;;;;;;
2022/10/03 18:56:44;;;;;;;0.20;0.10;;;;;;;;;;4891845;29;20052;-88
2022/10/03 19:02:27;;;;;;;0.47;0.20;;;;;;;;;;4860507;29;20143;-89
2022/10/03 19:04:59;;;;;;;0.20;0.10;;;;;;;;;;4859213;29;20462;-88
2022/10/03 19:07:37;;;;;;;0.20;0.10;;;;;;;;;;4861743;29;20435;-88
2022/10/03 19:10:15;;;;;;;0.20;0.10;;;;;;;;;;4851510;29;20906;-87
2022/10/03 19:12:59;;;;;;;0.20;0.10;;;;;;;;;;4857300;29;20103;-88
2022/10/03 19:15:37;;;;;;;0.20;0.10;;;;;;;;;;4861254;29;20552;-89
2022/10/03 19:18:32;;;;;;;0.20;0.08;;;;;;;;;;4863225;29;20059;-89
2022/10/03 19:21:26;;;;;;;0.20;0.10;;;;;;;;;;4879354;29;20115;-88
2022/10/03 19:24:19;;;;;;;0.20;0.10;;;;;;;;;;4890981;28;20729;-88
2022/10/03 19:27:14;;;;;;;0.20;0.10;;;;;;;;;;4923717;28;20130;-87
2022/10/03 19:29:43;;;;;;;0.20;0.10;;;;;;;;;;4911991;28;20085;-89
2022/10/03 19:32:30;;;;;;;0.20;0.10;;;;;;;;;;4896292;28;20070;-88
2022/10/03 19:35:32;;;;;;;0.20;0.10;;;;;;;;;;4900592;28;20249;-88
2022/10/03 19:38:27;;;;;;;0.20;0.10;;;;;;;;;;4917843;28;20055;-89
2022/10/03 19:41:30;;;;;;;0.20;0.10;;;;;;;;;;4899934;28;20047;-88
2022/10/03 19:44:32;;;;;;;0.20;0.10;;;;;;;;;;4896995;28;20051;-88
2022/10/03 19:47:27;;;;;;;0.20;0.10;;;;;;;;;;4880867;29;20673;-88
2022/10/03 19:50:25;;;;;;;0.20;0.10;;;;;;;;;;4896493;28;20051;-88
2022/10/03 19:52:52;;;;;;;0.20;0.00;;;;;;;;;;4898707;28;20094;-88
2022/10/03 19:55:21;;;;;;;0.20;0.10;;;;;;;;;;4897678;29;20055;-87
2022/10/03 19:58:29;;;;;;;0.20;0.10;;;;;;;;;;4890427;28;20258;-88
2022/10/03 20:04:41;;;;;;;0.20;0.10;;;;;;;;;;4932370;28;20078;-88
2022/10/03 20:07:22;;;;;;;0.20;0.10;;;;;;;;;;4921324;28;20056;-88
2022/10/03 20:10:15;;;;;;;0.30;0.30;;;;;;;;;;4936704;28;20050;-88
2022/10/03 20:12:54;;;;;;;0.20;0.10;;;;;;;;;;4946270;28;20105;-87
2022/10/03 20:15:42;;;;;;;0.20;0.10;;;;;;;;;;4931329;29;20039;-88
2022/10/03 20:18:25;;;;;;;0.20;0.10;;;;;;;;;;4930658;28;20039;-87
2022/10/03 20:21:19;;;;;;;0.20;0.10;;;;;;;;;;4928386;28;20402;-88
2022/10/03 20:23:58;;;;;;;;;;;;;;;;;;;;;
2022/10/03 20:26:57;;;;;;;0.20;0.10;;;;;;;;;;4947476;29;20043;-87
2022/10/03 20:29:50;;;;;;;0.20;0.10;;;;;;;;;;4939124;28;20058;-87
2022/10/03 20:32:17;;;;;;;0.20;0.10;;;;;;;;;;4927035;29;20057;-87
2022/10/03 20:34:45;;;;;;;0.20;0.10;;;;;;;;;;4940150;28;20054;-87
2022/10/03 20:37:34;;;;;;;0.20;0.10;;;;;;;;;;4942942;28;20047;-87
2022/10/03 20:40:28;;;;;;;0.20;0.10;;;;;;;;;;4930071;29;20101;-88
2022/10/03 20:42:59;;;;;;;0.20;0.10;;;;;;;;;;4930877;28;20074;-88
2022/10/03 20:45:27;;;;;;;0.20;0.10;;;;;;;;;;4931008;28;20043;-87
2022/10/03 20:48:00;;;;;;;0.20;0.10;;;;;;;;;;4928737;28;20047;-87
2022/10/03 20:50:35;;;;;;;0.20;0.10;;;;;;;;;;4925130;29;20039;-87
2022/10/03 20:53:05;;;;;;;0.20;0.08;;;;;;;;;;4946892;28;20041;-88
2022/10/03 20:55:40;;;;;;;0.20;0.10;;;;;;;;;;4931828;29;20569;-87
2022/10/03 20:58:09;;;;;;;0.20;0.10;;;;;;;;;;4943974;28;20057;-88
2022/10/03 21:00:44;;;;;;;0.20;0.10;;;;;;;;;;4945576;28;20054;-87
2022/10/03 21:03:35;;;;;;;0.20;0.10;;;;;;;;;;4945625;28;20649;-87
2022/10/03 21:06:01;;;;;;;0.95;0.55;;;;;;;;;;4929859;29;20063;-87
2022/10/03 21:08:34;;;;;;;0.20;0.10;;;;;;;;;;4931955;29;20047;-87
2022/10/03 21:11:14;;;;;;;0.20;0.10;;;;;;;;;;4927622;28;20047;-87
2022/10/03 21:13:49;;;;;;;0.20;0.10;;;;;;;;;;4931112;29;20043;-86
2022/10/03 21:16:53;;;;;;;0.20;0.10;;;;;;;;;;4932657;28;20042;-88
2022/10/03 21:19:54;;;;;;;0.20;0.10;;;;;;;;;;4933543;29;20188;-89
2022/10/03 21:22:46;;;;;;;0.20;0.10;;;;;;;;;;4939981;28;20055;-88
2022/10/03 21:25:25;;;;;;;0.20;0.10;;;;;;;;;;4948768;28;20520;-87
2022/10/03 21:27:57;;;;;;;0.20;0.10;;;;;;;;;;4932299;28;20063;-88
2022/10/03 21:30:47;;;;;;;0.20;0.10;;;;;;;;;;4949081;28;20494;-88
2022/10/03 21:37:07;;;;;;;0.20;0.10;;;;;;;;;;4931660;29;20050;-87
2022/10/03 21:39:40;;;;;;;0.20;0.10;;;;;;;;;;4925722;28;20063;-87
2022/10/03 21:42:30;;;;;;;0.20;0.10;;;;;;;;;;4935131;28;20047;-87
2022/10/03 21:45:20;;;;;;;0.20;0.10;;;;;;;;;;4932483;28;20039;-87
2022/10/03 21:48:07;;;;;;;0.20;0.10;;;;;;;;;;4932068;28;20047;-87
2022/10/03 21:50:40;;;;;;;0.20;0.10;;;;;;;;;;4942835;28;20058;-86
2022/10/03 21:53:17;;;;;;;0.20;0.10;;;;;;;;;;4927174;28;20086;-86
2022/10/03 21:55:48;;;;;;;0.20;0.10;;;;;;;;;;4927151;29;20057;-87
2022/10/03 21:58:32;;;;;;;0.20;0.10;;;;;;;;;;4929626;28;20031;-87
2022/10/03 22:01:08;;;;;;;0.20;0.10;;;;;;;;;;4929419;28;20054;-88
2022/10/03 22:03:40;;;;;;;0.20;0.10;;;;;;;;;;4930046;28;20062;-87